Anderson, Texas
Current Conditions -  °F | °C
As of 4:53 AM on Sunday 23 Nov 2014 (Local Time) from KCLL Reporting Station
Overcast Overcast  
Wind Chill: 58°   Ceiling: 300
Heat Index: 58°   Visibility: 8mi
Dew Point: 58°   Wind: 7mph
Humidity: 100%   Direction: 240°WSW
Pressure: 29.64"   Gusts: NA
Location:  30.49°N, 95.99°W
Report Text: KCLL 231053Z AUTO 24006KT 8SM OVC003 14/14 A2964 RMK AO2 SLP035 T01440144 $
Loading
Personal Weather Stations






























Interactive Weather Map New forecast layout! Learn more

10-Day Weather Forecast

Advertisements
Track Severe Weather on mobile